sensor_id;sensor_type;location;lat;lon;timestamp;pressure;altitude;pressure_sealevel;temperature;humidity
47809;BME280;33573;38.790;-77.084;2022-11-14T00:00:44;101974.95;;;19.38;28.21
47809;BME280;33573;38.790;-77.084;2022-11-14T00:03:12;101978.87;;;19.16;28.75
47809;BME280;33573;38.790;-77.084;2022-11-14T00:05:41;101984.64;;;19.10;29.19
47809;BME280;33573;38.790;-77.084;2022-11-14T00:08:15;101996.57;;;19.36;28.29
47809;BME280;33573;38.790;-77.084;2022-11-14T00:10:45;101996.48;;;19.23;29.49
47809;BME280;33573;38.790;-77.084;2022-11-14T00:13:13;101997.82;;;19.20;29.53
47809;BME280;33573;38.790;-77.084;2022-11-14T00:15:41;101996.46;;;18.74;28.77
47809;BME280;33573;38.790;-77.084;2022-11-14T00:18:09;102001.75;;;18.78;29.35
47809;BME280;33573;38.790;-77.084;2022-11-14T00:20:37;102001.27;;;18.86;30.04
47809;BME280;33573;38.790;-77.084;2022-11-14T00:23:05;102007.79;;;18.95;29.28
47809;BME280;33573;38.790;-77.084;2022-11-14T00:25:33;102013.42;;;19.04;28.95
47809;BME280;33573;38.790;-77.084;2022-11-14T00:28:01;102018.10;;;18.56;29.84
47809;BME280;33573;38.790;-77.084;2022-11-14T00:30:30;102023.78;;;19.40;28.94
47809;BME280;33573;38.790;-77.084;2022-11-14T00:32:58;102023.44;;;19.43;29.36
47809;BME280;33573;38.790;-77.084;2022-11-14T00:35:25;102025.92;;;19.50;29.77
47809;BME280;33573;38.790;-77.084;2022-11-14T00:37:53;102027.43;;;19.32;29.07
47809;BME280;33573;38.790;-77.084;2022-11-14T00:40:21;102027.43;;;18.98;29.50
47809;BME280;33573;38.790;-77.084;2022-11-14T00:42:49;102030.80;;;18.71;29.92
47809;BME280;33573;38.790;-77.084;2022-11-14T00:45:17;102029.88;;;18.66;29.03
47809;BME280;33573;38.790;-77.084;2022-11-14T00:47:45;102033.60;;;18.37;30.21
47809;BME280;33573;38.790;-77.084;2022-11-14T00:50:14;102035.35;;;18.34;30.29
47809;BME280;33573;38.790;-77.084;2022-11-14T00:52:42;102036.51;;;18.36;29.85
47809;BME280;33573;38.790;-77.084;2022-11-14T00:55:09;102033.55;;;18.76;28.81
47809;BME280;33573;38.790;-77.084;2022-11-14T00:57:37;102041.24;;;18.39;29.24
47809;BME280;33573;38.790;-77.084;2022-11-14T01:00:07;102038.47;;;18.40;28.93
47809;BME280;33573;38.790;-77.084;2022-11-14T01:02:35;102036.38;;;18.62;28.26
47809;BME280;33573;38.790;-77.084;2022-11-14T01:05:04;102034.99;;;18.68;28.57
47809;BME280;33573;38.790;-77.084;2022-11-14T01:07:32;102034.74;;;18.92;29.59
47809;BME280;33573;38.790;-77.084;2022-11-14T01:10:00;102035.93;;;18.71;29.92
47809;BME280;33573;38.790;-77.084;2022-11-14T01:12:28;102030.18;;;18.86;29.07
47809;BME280;33573;38.790;-77.084;2022-11-14T01:14:56;102030.47;;;19.08;28.97
47809;BME280;33573;38.790;-77.084;2022-11-14T01:17:24;102033.50;;;18.48;30.40
47809;BME280;33573;38.790;-77.084;2022-11-14T01:19:52;102033.82;;;18.55;30.08
47809;BME280;33573;38.790;-77.084;2022-11-14T01:22:20;102044.35;;;18.38;29.90
47809;BME280;33573;38.790;-77.084;2022-11-14T01:24:48;102042.13;;;18.45;29.90
47809;BME280;33573;38.790;-77.084;2022-11-14T01:27:16;102042.72;;;18.54;28.63
47809;BME280;33573;38.790;-77.084;2022-11-14T01:29:44;102050.00;;;18.42;28.90
47809;BME280;33573;38.790;-77.084;2022-11-14T01:32:12;102049.41;;;18.49;28.78
47809;BME280;33573;38.790;-77.084;2022-11-14T01:34:41;102054.03;;;18.58;28.82
47809;BME280;33573;38.790;-77.084;2022-11-14T01:37:09;102058.24;;;18.77;28.60
47809;BME280;33573;38.790;-77.084;2022-11-14T01:39:37;102065.07;;;18.84;28.83
47809;BME280;33573;38.790;-77.084;2022-11-14T01:42:05;102069.44;;;18.75;28.37
47809;BME280;33573;38.790;-77.084;2022-11-14T01:44:45;102066.81;;;18.39;29.92
47809;BME280;33573;38.790;-77.084;2022-11-14T01:47:16;102071.63;;;18.35;29.99
47809;BME280;33573;38.790;-77.084;2022-11-14T01:49:47;102074.87;;;18.29;30.06
47809;BME280;33573;38.790;-77.084;2022-11-14T01:52:20;102074.94;;;18.31;29.78
47809;BME280;33573;38.790;-77.084;2022-11-14T01:54:52;102079.08;;;18.71;30.11
47809;BME280;33573;38.790;-77.084;2022-11-14T01:57:24;102077.69;;;18.54;29.58
47809;BME280;33573;38.790;-77.084;2022-11-14T01:59:55;102083.30;;;18.62;29.84
47809;BME280;33573;38.790;-77.084;2022-11-14T02:02:25;102086.75;;;18.52;29.87
47809;BME280;33573;38.790;-77.084;2022-11-14T02:04:58;102091.36;;;18.49;30.04
47809;BME280;33573;38.790;-77.084;2022-11-14T02:07:28;102093.42;;;18.38;30.05
47809;BME280;33573;38.790;-77.084;2022-11-14T02:10:00;102095.77;;;18.54;29.63
47809;BME280;33573;38.790;-77.084;2022-11-14T02:12:29;102099.17;;;18.51;29.29
47809;BME280;33573;38.790;-77.084;2022-11-14T02:14:58;102101.50;;;18.34;29.58
47809;BME280;33573;38.790;-77.084;2022-11-14T02:17:27;102101.04;;;18.22;29.72
47809;BME280;33573;38.790;-77.084;2022-11-14T02:20:00;102098.26;;;18.20;30.16
47809;BME280;33573;38.790;-77.084;2022-11-14T02:22:30;102095.61;;;18.12;29.74
47809;BME280;33573;38.790;-77.084;2022-11-14T02:24:58;102095.88;;;18.43;29.30
47809;BME280;33573;38.790;-77.084;2022-11-14T02:27:26;102094.42;;;18.54;29.61
47809;BME280;33573;38.790;-77.084;2022-11-14T02:29:55;102096.22;;;18.51;29.85
47809;BME280;33573;38.790;-77.084;2022-11-14T02:32:28;102096.78;;;18.74;29.83
47809;BME280;33573;38.790;-77.084;2022-11-14T02:34:56;102101.93;;;18.38;29.29
47809;BME280;33573;38.790;-77.084;2022-11-14T02:37:24;102102.33;;;18.34;29.13
47809;BME280;33573;38.790;-77.084;2022-11-14T02:39:53;102110.13;;;18.32;29.35
47809;BME280;33573;38.790;-77.084;2022-11-14T02:42:21;102111.20;;;18.30;29.01
47809;BME280;33573;38.790;-77.084;2022-11-14T02:44:49;102112.32;;;18.16;29.33
47809;BME280;33573;38.790;-77.084;2022-11-14T02:47:17;102113.33;;;18.17;29.93
47809;BME280;33573;38.790;-77.084;2022-11-14T02:49:46;102114.61;;;18.54;29.00
47809;BME280;33573;38.790;-77.084;2022-11-14T02:52:13;102112.64;;;18.03;29.60
47809;BME280;33573;38.790;-77.084;2022-11-14T02:54:41;102114.72;;;18.17;29.62
47809;BME280;33573;38.790;-77.084;2022-11-14T02:57:09;102116.40;;;18.06;29.74
47809;BME280;33573;38.790;-77.084;2022-11-14T02:59:37;102116.41;;;18.36;30.11
47809;BME280;33573;38.790;-77.084;2022-11-14T03:02:05;102117.90;;;18.57;30.03
47809;BME280;33573;38.790;-77.084;2022-11-14T03:04:33;102123.31;;;18.24;29.56
47809;BME280;33573;38.790;-77.084;2022-11-14T03:07:01;102123.11;;;18.12;29.45
47809;BME280;33573;38.790;-77.084;2022-11-14T03:09:29;102124.05;;;18.41;29.61
47809;BME280;33573;38.790;-77.084;2022-11-14T03:11:57;102128.45;;;18.22;29.77
47809;BME280;33573;38.790;-77.084;2022-11-14T03:14:26;102127.87;;;18.48;29.51
47809;BME280;33573;38.790;-77.084;2022-11-14T03:16:56;102127.91;;;18.28;29.95
47809;BME280;33573;38.790;-77.084;2022-11-14T03:19:24;102118.95;;;17.94;29.81
47809;BME280;33573;38.790;-77.084;2022-11-14T03:21:52;102116.33;;;17.88;29.54
47809;BME280;33573;38.790;-77.084;2022-11-14T03:24:20;102115.59;;;17.76;29.70
47809;BME280;33573;38.790;-77.084;2022-11-14T03:26:48;102117.08;;;18.04;29.58
47809;BME280;33573;38.790;-77.084;2022-11-14T03:29:17;102122.48;;;18.02;29.72
47809;BME280;33573;38.790;-77.084;2022-11-14T03:31:44;102129.13;;;18.01;29.53
47809;BME280;33573;38.790;-77.084;2022-11-14T03:34:13;102137.62;;;18.12;29.77
47809;BME280;33573;38.790;-77.084;2022-11-14T03:36:41;102142.55;;;18.08;29.61
47809;BME280;33573;38.790;-77.084;2022-11-14T03:39:09;102145.67;;;17.83;29.70
47809;BME280;33573;38.790;-77.084;2022-11-14T03:41:37;102145.12;;;17.95;29.46
47809;BME280;33573;38.790;-77.084;2022-11-14T03:44:05;102140.24;;;17.98;29.72
47809;BME280;33573;38.790;-77.084;2022-11-14T03:46:33;102139.86;;;17.90;29.94
47809;BME280;33573;38.790;-77.084;2022-11-14T03:49:02;102138.13;;;18.11;29.93
47809;BME280;33573;38.790;-77.084;2022-11-14T03:51:30;102139.64;;;17.94;30.11
47809;BME280;33573;38.790;-77.084;2022-11-14T03:53:58;102139.72;;;17.90;30.20
47809;BME280;33573;38.790;-77.084;2022-11-14T03:56:25;102142.36;;;17.87;30.45
47809;BME280;33573;38.790;-77.084;2022-11-14T03:58:53;102141.25;;;17.82;31.13
47809;BME280;33573;38.790;-77.084;2022-11-14T04:01:21;102142.35;;;17.58;30.59
47809;BME280;33573;38.790;-77.084;2022-11-14T04:03:49;102143.20;;;17.91;30.49
47809;BME280;33573;38.790;-77.084;2022-11-14T04:06:17;102141.50;;;18.00;30.70
47809;BME280;33573;38.790;-77.084;2022-11-14T04:08:45;102144.91;;;18.50;30.51
47809;BME280;33573;38.790;-77.084;2022-11-14T04:11:13;102144.29;;;18.11;30.73
47809;BME280;33573;38.790;-77.084;2022-11-14T04:13:41;102142.53;;;18.07;30.66
47809;BME280;33573;38.790;-77.084;2022-11-14T04:16:09;102145.57;;;18.31;30.46
47809;BME280;33573;38.790;-77.084;2022-11-14T04:18:37;102142.22;;;18.43;30.45
47809;BME280;33573;38.790;-77.084;2022-11-14T04:21:05;102150.91;;;18.25;30.48
47809;BME280;33573;38.790;-77.084;2022-11-14T04:23:34;102156.56;;;18.33;30.35
47809;BME280;33573;38.790;-77.084;2022-11-14T04:26:01;102158.22;;;18.36;30.25
47809;BME280;33573;38.790;-77.084;2022-11-14T04:28:30;102151.77;;;18.19;30.58
47809;BME280;33573;38.790;-77.084;2022-11-14T04:30:58;102151.47;;;18.01;30.85
47809;BME280;33573;38.790;-77.084;2022-11-14T04:33:26;102147.23;;;17.84;31.26
47809;BME280;33573;38.790;-77.084;2022-11-14T04:35:54;102145.19;;;17.73;31.27
47809;BME280;33573;38.790;-77.084;2022-11-14T04:38:22;102144.39;;;17.92;30.95
47809;BME280;33573;38.790;-77.084;2022-11-14T04:40:50;102142.24;;;17.97;31.05
47809;BME280;33573;38.790;-77.084;2022-11-14T04:43:20;102146.24;;;17.89;31.03
47809;BME280;33573;38.790;-77.084;2022-11-14T04:45:48;102159.43;;;18.32;30.49
47809;BME280;33573;38.790;-77.084;2022-11-14T04:48:16;102168.44;;;18.14;30.87
47809;BME280;33573;38.790;-77.084;2022-11-14T04:50:44;102172.46;;;18.44;30.76
47809;BME280;33573;38.790;-77.084;2022-11-14T04:53:12;102168.32;;;18.15;30.80
47809;BME280;33573;38.790;-77.084;2022-11-14T04:55:40;102162.39;;;18.19;30.86
47809;BME280;33573;38.790;-77.084;2022-11-14T04:58:08;102165.00;;;18.42;30.50
47809;BME280;33573;38.790;-77.084;2022-11-14T05:00:36;102162.13;;;18.17;30.80
47809;BME280;33573;38.790;-77.084;2022-11-14T05:03:04;102165.82;;;18.02;30.92
47809;BME280;33573;38.790;-77.084;2022-11-14T05:05:32;102163.86;;;18.40;31.11
47809;BME280;33573;38.790;-77.084;2022-11-14T05:08:00;102166.56;;;18.24;30.72
47809;BME280;33573;38.790;-77.084;2022-11-14T05:10:28;102183.94;;;17.73;30.97
47809;BME280;33573;38.790;-77.084;2022-11-14T05:12:56;102194.53;;;18.20;30.85
47809;BME280;33573;38.790;-77.084;2022-11-14T05:15:24;102185.82;;;17.54;31.26
47809;BME280;33573;38.790;-77.084;2022-11-14T05:17:52;102191.00;;;18.17;30.92
47809;BME280;33573;38.790;-77.084;2022-11-14T05:20:20;102192.00;;;17.74;31.29
47809;BME280;33573;38.790;-77.084;2022-11-14T05:22:52;102194.66;;;18.10;31.15
47809;BME280;33573;38.790;-77.084;2022-11-14T05:25:20;102201.83;;;18.22;31.18
47809;BME280;33573;38.790;-77.084;2022-11-14T05:27:48;102212.59;;;17.76;31.15
47809;BME280;33573;38.790;-77.084;2022-11-14T05:30:17;102219.08;;;17.85;31.15
47809;BME280;33573;38.790;-77.084;2022-11-14T05:32:44;102206.24;;;17.92;30.96
47809;BME280;33573;38.790;-77.084;2022-11-14T05:35:13;102208.13;;;18.10;30.83
47809;BME280;33573;38.790;-77.084;2022-11-14T05:37:40;102214.91;;;17.97;30.94
47809;BME280;33573;38.790;-77.084;2022-11-14T05:40:09;102218.75;;;18.44;30.73
47809;BME280;33573;38.790;-77.084;2022-11-14T05:42:37;102215.31;;;18.03;31.06
47809;BME280;33573;38.790;-77.084;2022-11-14T05:45:06;102209.99;;;17.97;30.73
47809;BME280;33573;38.790;-77.084;2022-11-14T05:47:34;102213.81;;;18.42;30.48
47809;BME280;33573;38.790;-77.084;2022-11-14T05:50:02;102216.20;;;18.16;30.67
47809;BME280;33573;38.790;-77.084;2022-11-14T05:52:30;102216.94;;;18.27;30.49
47809;BME280;33573;38.790;-77.084;2022-11-14T05:54:58;102214.62;;;18.36;30.91
47809;BME280;33573;38.790;-77.084;2022-11-14T05:57:26;102210.21;;;18.37;30.50
47809;BME280;33573;38.790;-77.084;2022-11-14T05:59:55;102219.46;;;18.36;30.65
47809;BME280;33573;38.790;-77.084;2022-11-14T06:02:23;102216.50;;;18.13;30.54
47809;BME280;33573;38.790;-77.084;2022-11-14T06:04:51;102216.76;;;18.21;30.43
47809;BME280;33573;38.790;-77.084;2022-11-14T06:07:19;102207.42;;;18.67;30.46
47809;BME280;33573;38.790;-77.084;2022-11-14T06:09:47;102207.04;;;18.15;30.55
47809;BME280;33573;38.790;-77.084;2022-11-14T06:12:15;102215.22;;;17.80;30.83
47809;BME280;33573;38.790;-77.084;2022-11-14T06:14:43;102221.51;;;17.91;30.75
47809;BME280;33573;38.790;-77.084;2022-11-14T06:17:11;102221.55;;;18.03;30.41
47809;BME280;33573;38.790;-77.084;2022-11-14T06:19:39;102216.11;;;17.74;30.70
47809;BME280;33573;38.790;-77.084;2022-11-14T06:22:07;102211.32;;;18.29;30.50
47809;BME280;33573;38.790;-77.084;2022-11-14T06:24:35;102211.75;;;17.97;30.50
47809;BME280;33573;38.790;-77.084;2022-11-14T06:27:03;102222.09;;;18.15;30.53
47809;BME280;33573;38.790;-77.084;2022-11-14T06:29:31;102228.07;;;18.15;30.53
47809;BME280;33573;38.790;-77.084;2022-11-14T06:31:59;102226.49;;;17.98;30.48
47809;BME280;33573;38.790;-77.084;2022-11-14T06:34:27;102217.61;;;18.07;30.59
47809;BME280;33573;38.790;-77.084;2022-11-14T06:36:55;102213.76;;;18.15;30.52
47809;BME280;33573;38.790;-77.084;2022-11-14T06:39:23;102216.01;;;18.25;30.30
47809;BME280;33573;38.790;-77.084;2022-11-14T06:41:51;102229.98;;;18.31;30.24
47809;BME280;33573;38.790;-77.084;2022-11-14T06:44:20;102237.93;;;18.03;30.55
47809;BME280;33573;38.790;-77.084;2022-11-14T06:46:48;102243.21;;;17.91;30.60
47809;BME280;33573;38.790;-77.084;2022-11-14T06:49:16;102233.57;;;18.26;30.64
47809;BME280;33573;38.790;-77.084;2022-11-14T06:51:44;102229.15;;;17.55;30.81
47809;BME280;33573;38.790;-77.084;2022-11-14T06:54:12;102228.21;;;18.01;30.69
47809;BME280;33573;38.790;-77.084;2022-11-14T06:56:41;102243.42;;;17.88;30.72
47809;BME280;33573;38.790;-77.084;2022-11-14T06:59:10;102261.50;;;18.05;30.84
47809;BME280;33573;38.790;-77.084;2022-11-14T07:01:38;102268.00;;;17.84;30.71
47809;BME280;33573;38.790;-77.084;2022-11-14T07:04:05;102266.11;;;17.78;30.79
47809;BME280;33573;38.790;-77.084;2022-11-14T07:06:33;102247.37;;;17.74;30.84
47809;BME280;33573;38.790;-77.084;2022-11-14T07:09:01;102239.97;;;17.69;30.94
47809;BME280;33573;38.790;-77.084;2022-11-14T07:11:29;102248.78;;;17.57;30.68
47809;BME280;33573;38.790;-77.084;2022-11-14T07:13:58;102261.70;;;17.62;31.00
47809;BME280;33573;38.790;-77.084;2022-11-14T07:16:29;102267.13;;;17.21;31.25
47809;BME280;33573;38.790;-77.084;2022-11-14T07:18:57;102265.49;;;17.61;30.98
47809;BME280;33573;38.790;-77.084;2022-11-14T07:21:27;102255.20;;;17.85;30.94
47809;BME280;33573;38.790;-77.084;2022-11-14T07:23:54;102251.46;;;18.03;30.74
47809;BME280;33573;38.790;-77.084;2022-11-14T07:26:23;102258.09;;;17.73;30.68
47809;BME280;33573;38.790;-77.084;2022-11-14T07:28:51;102271.18;;;17.87;30.67
47809;BME280;33573;38.790;-77.084;2022-11-14T07:31:19;102278.94;;;18.05;30.32
47809;BME280;33573;38.790;-77.084;2022-11-14T07:33:47;102277.81;;;17.68;30.79
47809;BME280;33573;38.790;-77.084;2022-11-14T07:36:16;102270.46;;;17.33;31.33
47809;BME280;33573;38.790;-77.084;2022-11-14T07:38:44;102270.74;;;17.35;31.04
47809;BME280;33573;38.790;-77.084;2022-11-14T07:41:13;102277.50;;;17.45;31.17
47809;BME280;33573;38.790;-77.084;2022-11-14T07:43:41;102283.19;;;17.35;31.33
47809;BME280;33573;38.790;-77.084;2022-11-14T07:46:11;102291.50;;;16.96;31.52
47809;BME280;33573;38.790;-77.084;2022-11-14T07:48:40;102292.10;;;17.27;31.34
47809;BME280;33573;38.790;-77.084;2022-11-14T07:51:11;102292.79;;;17.43;31.12
47809;BME280;33573;38.790;-77.084;2022-11-14T07:53:40;102292.39;;;17.19;31.28
47809;BME280;33573;38.790;-77.084;2022-11-14T07:56:08;102294.08;;;17.33;31.49
47809;BME280;33573;38.790;-77.084;2022-11-14T07:58:36;102293.34;;;17.07;31.50
47809;BME280;33573;38.790;-77.084;2022-11-14T08:01:06;102302.07;;;17.04;31.20
47809;BME280;33573;38.790;-77.084;2022-11-14T08:03:34;102311.88;;;17.29;31.14
47809;BME280;33573;38.790;-77.084;2022-11-14T08:06:03;102317.02;;;16.93;31.46
47809;BME280;33573;38.790;-77.084;2022-11-14T08:08:31;102314.94;;;17.03;31.48
47809;BME280;33573;38.790;-77.084;2022-11-14T08:10:59;102313.60;;;17.04;31.45
47809;BME280;33573;38.790;-77.084;2022-11-14T08:13:28;102316.97;;;17.18;31.58
47809;BME280;33573;38.790;-77.084;2022-11-14T08:15:56;102322.97;;;16.87;31.73
47809;BME280;33573;38.790;-77.084;2022-11-14T08:18:24;102326.35;;;17.05;31.35
47809;BME280;33573;38.790;-77.084;2022-11-14T08:20:52;102322.50;;;17.15;31.09
47809;BME280;33573;38.790;-77.084;2022-11-14T08:23:20;102320.25;;;16.93;31.58
47809;BME280;33573;38.790;-77.084;2022-11-14T08:25:48;102327.45;;;17.40;30.97
47809;BME280;33573;38.790;-77.084;2022-11-14T08:28:16;102329.29;;;17.22;31.01
47809;BME280;33573;38.790;-77.084;2022-11-14T08:30:44;102329.31;;;17.17;30.99
47809;BME280;33573;38.790;-77.084;2022-11-14T08:33:12;102328.75;;;17.21;31.28
47809;BME280;33573;38.790;-77.084;2022-11-14T08:35:40;102314.30;;;16.93;31.31
47809;BME280;33573;38.790;-77.084;2022-11-14T08:38:08;102314.33;;;17.00;31.34
47809;BME280;33573;38.790;-77.084;2022-11-14T08:40:36;102313.58;;;16.95;31.28
47809;BME280;33573;38.790;-77.084;2022-11-14T08:43:04;102310.96;;;17.12;31.05
47809;BME280;33573;38.790;-77.084;2022-11-14T08:45:33;102311.71;;;17.11;31.24
47809;BME280;33573;38.790;-77.084;2022-11-14T08:48:01;102312.42;;;16.97;31.11
47809;BME280;33573;38.790;-77.084;2022-11-14T08:50:29;102311.10;;;16.68;31.47
47809;BME280;33573;38.790;-77.084;2022-11-14T08:52:57;102316.03;;;17.15;31.15
47809;BME280;33573;38.790;-77.084;2022-11-14T08:55:25;102311.88;;;17.14;31.14
47809;BME280;33573;38.790;-77.084;2022-11-14T08:57:53;102303.86;;;16.64;31.46
47809;BME280;33573;38.790;-77.084;2022-11-14T09:00:21;102309.48;;;16.84;31.22
47809;BME280;33573;38.790;-77.084;2022-11-14T09:02:49;102324.01;;;17.17;30.97
47809;BME280;33573;38.790;-77.084;2022-11-14T09:05:17;102319.16;;;16.60;31.37
47809;BME280;33573;38.790;-77.084;2022-11-14T09:07:45;102322.01;;;16.83;31.44
47809;BME280;33573;38.790;-77.084;2022-11-14T09:10:13;102323.06;;;16.82;31.39
47809;BME280;33573;38.790;-77.084;2022-11-14T09:12:41;102329.17;;;16.94;31.26
47809;BME280;33573;38.790;-77.084;2022-11-14T09:15:09;102343.71;;;17.04;31.12
47809;BME280;33573;38.790;-77.084;2022-11-14T09:17:37;102351.15;;;16.51;31.40
47809;BME280;33573;38.790;-77.084;2022-11-14T09:20:06;102358.04;;;16.88;31.18
47809;BME280;33573;38.790;-77.084;2022-11-14T09:22:33;102365.77;;;17.03;31.27
47809;BME280;33573;38.790;-77.084;2022-11-14T09:25:02;102370.83;;;16.53;31.29
47809;BME280;33573;38.790;-77.084;2022-11-14T09:27:30;102372.49;;;16.64;31.26
47809;BME280;33573;38.790;-77.084;2022-11-14T09:29:58;102375.03;;;16.52;31.71
47809;BME280;33573;38.790;-77.084;2022-11-14T09:32:26;102379.55;;;16.96;31.50
47809;BME280;33573;38.790;-77.084;2022-11-14T09:34:54;102379.73;;;16.44;31.67
47809;BME280;33573;38.790;-77.084;2022-11-14T09:37:22;102384.05;;;16.51;31.67
47809;BME280;33573;38.790;-77.084;2022-11-14T09:39:50;102388.15;;;16.57;31.57
47809;BME280;33573;38.790;-77.084;2022-11-14T09:42:33;102388.16;;;16.63;31.52
47809;BME280;33573;38.790;-77.084;2022-11-14T09:45:10;102388.05;;;16.70;31.40
47809;BME280;33573;38.790;-77.084;2022-11-14T09:47:41;102389.32;;;16.49;31.62
47809;BME280;33573;38.790;-77.084;2022-11-14T09:50:15;102398.25;;;16.63;31.33
47809;BME280;33573;38.790;-77.084;2022-11-14T09:52:46;102402.16;;;16.42;31.46
47809;BME280;33573;38.790;-77.084;2022-11-14T09:55:18;102402.06;;;16.40;31.53
47809;BME280;33573;38.790;-77.084;2022-11-14T09:57:46;102400.57;;;16.01;31.66
47809;BME280;33573;38.790;-77.084;2022-11-14T10:00:17;102402.83;;;16.67;31.54
47809;BME280;33573;38.790;-77.084;2022-11-14T10:02:55;102409.54;;;16.35;31.56
47809;BME280;33573;38.790;-77.084;2022-11-14T10:05:38;102413.36;;;16.51;31.63
47809;BME280;33573;38.790;-77.084;2022-11-14T10:08:18;102418.83;;;16.40;31.07
47809;BME280;33573;38.790;-77.084;2022-11-14T10:10:53;102423.97;;;16.98;31.24
47809;BME280;33573;38.790;-77.084;2022-11-14T10:13:39;102430.26;;;16.68;31.13
47809;BME280;33573;38.790;-77.084;2022-11-14T10:16:17;102432.17;;;16.64;31.00
47809;BME280;33573;38.790;-77.084;2022-11-14T10:18:57;102434.24;;;16.59;31.12
47809;BME280;33573;38.790;-77.084;2022-11-14T10:21:39;102437.99;;;16.76;30.99
47809;BME280;33573;38.790;-77.084;2022-11-14T10:24:23;102439.44;;;17.01;31.05
47809;BME280;33573;38.790;-77.084;2022-11-14T10:26:59;102436.74;;;16.59;30.95
47809;BME280;33573;38.790;-77.084;2022-11-14T10:29:39;102444.94;;;16.92;30.44
47809;BME280;33573;38.790;-77.084;2022-11-14T10:32:18;102454.17;;;16.58;30.25
47809;BME280;33573;38.790;-77.084;2022-11-14T10:34:54;102455.25;;;16.99;30.08
47809;BME280;33573;38.790;-77.084;2022-11-14T10:37:26;102449.35;;;16.80;30.34
47809;BME280;33573;38.790;-77.084;2022-11-14T10:40:03;102442.60;;;17.06;30.37
47809;BME280;33573;38.790;-77.084;2022-11-14T10:42:42;102449.98;;;17.24;30.14
47809;BME280;33573;38.790;-77.084;2022-11-14T10:45:19;102458.29;;;17.22;30.22
47809;BME280;33573;38.790;-77.084;2022-11-14T10:47:53;102458.89;;;17.32;30.21
47809;BME280;33573;38.790;-77.084;2022-11-14T10:50:27;102456.98;;;17.38;30.39
47809;BME280;33573;38.790;-77.084;2022-11-14T10:53:02;102452.20;;;17.58;30.04
47809;BME280;33573;38.790;-77.084;2022-11-14T10:55:32;102456.61;;;17.37;30.49
47809;BME280;33573;38.790;-77.084;2022-11-14T10:57:59;102472.26;;;17.30;30.67
47809;BME280;33573;38.790;-77.084;2022-11-14T11:00:27;102483.27;;;17.42;30.11
47809;BME280;33573;38.790;-77.084;2022-11-14T11:02:56;102484.03;;;17.07;30.93
47809;BME280;33573;38.790;-77.084;2022-11-14T11:05:29;102480.97;;;16.93;31.00
47809;BME280;33573;38.790;-77.084;2022-11-14T11:07:58;102479.74;;;17.10;31.07
47809;BME280;33573;38.790;-77.084;2022-11-14T11:10:26;102494.27;;;17.16;30.87
47809;BME280;33573;38.790;-77.084;2022-11-14T11:12:54;102504.85;;;17.21;31.22
47809;BME280;33573;38.790;-77.084;2022-11-14T11:15:25;102506.41;;;17.13;30.88
47809;BME280;33573;38.790;-77.084;2022-11-14T11:17:55;102495.46;;;17.08;30.89
47809;BME280;33573;38.790;-77.084;2022-11-14T11:20:28;102494.59;;;17.10;30.85
47809;BME280;33573;38.790;-77.084;2022-11-14T11:23:04;102505.53;;;17.35;31.12
47809;BME280;33573;38.790;-77.084;2022-11-14T11:25:33;102514.50;;;17.24;31.16
47809;BME280;33573;38.790;-77.084;2022-11-14T11:28:08;102516.05;;;17.63;30.68
47809;BME280;33573;38.790;-77.084;2022-11-14T11:30:38;102504.47;;;17.50;31.15
47809;BME280;33573;38.790;-77.084;2022-11-14T11:33:23;102510.30;;;17.31;31.54
47809;BME280;33573;38.790;-77.084;2022-11-14T11:35:55;102523.83;;;17.18;31.47
47809;BME280;33573;38.790;-77.084;2022-11-14T11:38:26;102528.16;;;17.20;31.39
47809;BME280;33573;38.790;-77.084;2022-11-14T11:41:02;102527.97;;;17.07;31.24
47809;BME280;33573;38.790;-77.084;2022-11-14T11:43:37;102525.65;;;17.25;31.45
47809;BME280;33573;38.790;-77.084;2022-11-14T11:46:13;102536.38;;;17.28;31.02
47809;BME280;33573;38.790;-77.084;2022-11-14T11:48:42;102536.00;;;17.20;31.46
47809;BME280;33573;38.790;-77.084;2022-11-14T11:51:16;102532.40;;;17.57;30.96
47809;BME280;33573;38.790;-77.084;2022-11-14T11:53:56;102537.55;;;17.57;31.41
47809;BME280;33573;38.790;-77.084;2022-11-14T11:56:29;102550.63;;;17.21;31.81
47809;BME280;33573;38.790;-77.084;2022-11-14T11:59:04;102552.65;;;17.24;31.65
47809;BME280;33573;38.790;-77.084;2022-11-14T12:01:36;102553.31;;;17.22;31.56
47809;BME280;33573;38.790;-77.084;2022-11-14T12:04:05;102560.23;;;17.20;31.48
47809;BME280;33573;38.790;-77.084;2022-11-14T12:06:38;102564.94;;;17.24;31.26
47809;BME280;33573;38.790;-77.084;2022-11-14T12:09:15;102569.98;;;17.51;31.22
47809;BME280;33573;38.790;-77.084;2022-11-14T12:11:49;102576.33;;;17.35;31.18
47809;BME280;33573;38.790;-77.084;2022-11-14T12:14:34;102581.06;;;17.56;31.15
47809;BME280;33573;38.790;-77.084;2022-11-14T12:17:24;102589.42;;;17.72;31.01
47809;BME280;33573;38.790;-77.084;2022-11-14T12:20:10;102583.40;;;17.83;30.45
47809;BME280;33573;38.790;-77.084;2022-11-14T12:22:51;102586.12;;;17.18;31.85
47809;BME280;33573;38.790;-77.084;2022-11-14T12:25:46;102595.69;;;17.24;31.71
47809;BME280;33573;38.790;-77.084;2022-11-14T12:28:31;102601.47;;;17.56;31.20
47809;BME280;33573;38.790;-77.084;2022-11-14T12:31:04;102601.57;;;17.66;30.79
47809;BME280;33573;38.790;-77.084;2022-11-14T12:33:38;102601.26;;;18.22;30.03
47809;BME280;33573;38.790;-77.084;2022-11-14T12:36:09;102605.72;;;18.39;29.68
47809;BME280;33573;38.790;-77.084;2022-11-14T12:38:43;102611.43;;;17.99;30.43
47809;BME280;33573;38.790;-77.084;2022-11-14T12:41:12;102613.13;;;17.50;31.39
47809;BME280;33573;38.790;-77.084;2022-11-14T12:43:47;102612.73;;;17.24;31.71